sensor_id;sensor_type;location;lat;lon;timestamp;pressure;altitude;pressure_sealevel;temperature;humidity
7730;BME280;3908;52.310;7.230;2023-02-22T00:02:34;51506.97;;;-145.83;100.00
7730;BME280;3908;52.310;7.230;2023-02-22T00:05:22;51503.06;;;-145.83;100.00
7730;BME280;3908;52.310;7.230;2023-02-22T00:08:11;51465.88;;;-145.83;100.00
7730;BME280;3908;52.310;7.230;2023-02-22T00:10:59;51530.44;;;-145.83;100.00
7730;BME280;3908;52.310;7.230;2023-02-22T00:13:46;51528.47;;;-145.83;100.00
7730;BME280;3908;52.310;7.230;2023-02-22T00:16:35;51501.09;;;-145.83;100.00
7730;BME280;3908;52.310;7.230;2023-02-22T00:19:22;51520.66;;;-145.83;100.00
7730;BME280;3908;52.310;7.230;2023-02-22T00:22:11;51477.63;;;-145.83;100.00
7730;BME280;3908;52.310;7.230;2023-02-22T00:24:59;51510.88;;;-145.83;100.00
7730;BME280;3908;52.310;7.230;2023-02-22T00:27:47;51463.91;;;-145.83;100.00
7730;BME280;3908;52.310;7.230;2023-02-22T00:30:36;51530.44;;;-145.83;100.00
7730;BME280;3908;52.310;7.230;2023-02-22T00:33:23;51520.66;;;-145.83;100.00
7730;BME280;3908;52.310;7.230;2023-02-22T00:36:11;51475.66;;;-145.83;100.00
7730;BME280;3908;52.310;7.230;2023-02-22T00:38:58;51506.97;;;-145.83;100.00
7730;BME280;3908;52.310;7.230;2023-02-22T00:41:47;51510.88;;;-145.83;100.00
7730;BME280;3908;52.310;7.230;2023-02-22T00:44:34;51442.41;;;-145.83;100.00
7730;BME280;3908;52.310;7.230;2023-02-22T00:47:21;51489.34;;;-145.83;100.00
7730;BME280;3908;52.310;7.230;2023-02-22T00:50:08;51505.00;;;-145.83;100.00
7730;BME280;3908;52.310;7.230;2023-02-22T00:52:57;51497.19;;;-145.83;100.00
7730;BME280;3908;52.310;7.230;2023-02-22T00:55:45;51520.66;;;-145.83;100.00
7730;BME280;3908;52.310;7.230;2023-02-22T00:58:35;51499.13;;;-145.83;100.00
7730;BME280;3908;52.310;7.230;2023-02-22T01:01:22;51516.75;;;-145.83;100.00
7730;BME280;3908;52.310;7.230;2023-02-22T01:04:09;51510.88;;;-145.83;100.00
7730;BME280;3908;52.310;7.230;2023-02-22T01:06:56;51501.09;;;-145.83;100.00
7730;BME280;3908;52.310;7.230;2023-02-22T01:09:45;51559.78;;;-145.83;100.00
7730;BME280;3908;52.310;7.230;2023-02-22T01:12:32;51508.91;;;-145.83;100.00
7730;BME280;3908;52.310;7.230;2023-02-22T01:15:22;51495.22;;;-145.83;100.00
7730;BME280;3908;52.310;7.230;2023-02-22T01:18:10;51497.19;;;-145.83;100.00
7730;BME280;3908;52.310;7.230;2023-02-22T01:21:02;51497.19;;;-145.83;100.00
7730;BME280;3908;52.310;7.230;2023-02-22T01:23:49;51510.88;;;-145.83;100.00
7730;BME280;3908;52.310;7.230;2023-02-22T01:26:36;51473.69;;;-145.83;100.00
7730;BME280;3908;52.310;7.230;2023-02-22T01:29:23;51506.97;;;-145.83;100.00
7730;BME280;3908;52.310;7.230;2023-02-22T01:32:12;51483.47;;;-145.83;100.00
7730;BME280;3908;52.310;7.230;2023-02-22T01:34:59;51503.06;;;-145.83;100.00
7730;BME280;3908;52.310;7.230;2023-02-22T01:37:50;51503.06;;;-145.83;100.00
7730;BME280;3908;52.310;7.230;2023-02-22T01:40:40;51526.53;;;-145.83;100.00
7730;BME280;3908;52.310;7.230;2023-02-22T01:43:30;51499.13;;;-145.83;100.00
7730;BME280;3908;52.310;7.230;2023-02-22T01:46:21;51489.34;;;-145.83;100.00
7730;BME280;3908;52.310;7.230;2023-02-22T01:49:13;51497.19;;;-145.83;100.00
7730;BME280;3908;52.310;7.230;2023-02-22T01:52:02;51508.91;;;-145.83;100.00
7730;BME280;3908;52.310;7.230;2023-02-22T01:54:56;51503.06;;;-145.83;100.00
7730;BME280;3908;52.310;7.230;2023-02-22T01:57:44;51503.06;;;-145.83;100.00
7730;BME280;3908;52.310;7.230;2023-02-22T02:00:33;51508.91;;;-145.83;100.00
7730;BME280;3908;52.310;7.230;2023-02-22T02:03:24;51487.41;;;-145.83;100.00
7730;BME280;3908;52.310;7.230;2023-02-22T02:06:14;51522.63;;;-145.83;100.00
7730;BME280;3908;52.310;7.230;2023-02-22T02:09:07;51508.91;;;-145.83;100.00
7730;BME280;3908;52.310;7.230;2023-02-22T02:11:57;51483.47;;;-145.83;100.00
7730;BME280;3908;52.310;7.230;2023-02-22T02:14:47;51503.06;;;-145.83;100.00
7730;BME280;3908;52.310;7.230;2023-02-22T02:17:34;51508.91;;;-145.83;100.00
7730;BME280;3908;52.310;7.230;2023-02-22T02:20:26;51495.22;;;-145.83;100.00
7730;BME280;3908;52.310;7.230;2023-02-22T02:23:49;51493.25;;;-145.83;100.00
7730;BME280;3908;52.310;7.230;2023-02-22T02:27:10;51534.34;;;-145.83;100.00
7730;BME280;3908;52.310;7.230;2023-02-22T02:30:36;51485.44;;;-145.83;100.00
7730;BME280;3908;52.310;7.230;2023-02-22T02:33:31;51512.84;;;-145.83;100.00
7730;BME280;3908;52.310;7.230;2023-02-22T02:36:24;51512.84;;;-145.83;100.00
7730;BME280;3908;52.310;7.230;2023-02-22T02:39:19;51544.13;;;-145.83;100.00
7730;BME280;3908;52.310;7.230;2023-02-22T02:42:11;51522.63;;;-145.83;100.00
7730;BME280;3908;52.310;7.230;2023-02-22T02:45:06;51530.44;;;-145.83;100.00
7730;BME280;3908;52.310;7.230;2023-02-22T02:47:56;51493.25;;;-145.83;100.00
7730;BME280;3908;52.310;7.230;2023-02-22T02:50:47;51548.03;;;-145.83;100.00
7730;BME280;3908;52.310;7.230;2023-02-22T02:53:37;51514.78;;;-145.83;100.00
7730;BME280;3908;52.310;7.230;2023-02-22T02:56:25;51493.25;;;-145.83;100.00
7730;BME280;3908;52.310;7.230;2023-02-22T02:59:26;51493.25;;;-145.83;100.00
7730;BME280;3908;52.310;7.230;2023-02-22T03:02:26;51499.13;;;-145.83;100.00
7730;BME280;3908;52.310;7.230;2023-02-22T03:05:32;51463.91;;;-145.83;100.00
7730;BME280;3908;52.310;7.230;2023-02-22T03:08:31;51495.22;;;-145.83;100.00
7730;BME280;3908;52.310;7.230;2023-02-22T03:11:27;51538.25;;;-145.83;100.00
7730;BME280;3908;52.310;7.230;2023-02-22T03:14:22;51491.31;;;-145.83;100.00
7730;BME280;3908;52.310;7.230;2023-02-22T03:17:17;51510.88;;;-145.83;100.00
7730;BME280;3908;52.310;7.230;2023-02-22T03:20:10;51505.00;;;-145.83;100.00
7730;BME280;3908;52.310;7.230;2023-02-22T03:23:03;51516.75;;;-145.83;100.00
7730;BME280;3908;52.310;7.230;2023-02-22T03:25:58;51467.84;;;-145.83;100.00
7730;BME280;3908;52.310;7.230;2023-02-22T03:28:50;51495.22;;;-145.83;100.00
7730;BME280;3908;52.310;7.230;2023-02-22T03:31:41;51495.22;;;-145.83;100.00
7730;BME280;3908;52.310;7.230;2023-02-22T03:34:33;51463.91;;;-145.83;100.00
7730;BME280;3908;52.310;7.230;2023-02-22T03:37:25;51479.56;;;-145.83;100.00
7730;BME280;3908;52.310;7.230;2023-02-22T03:40:17;51530.44;;;-145.83;100.00
7730;BME280;3908;52.310;7.230;2023-02-22T03:43:14;51501.09;;;-145.83;100.00
7730;BME280;3908;52.310;7.230;2023-02-22T03:46:03;51506.97;;;-145.83;100.00
7730;BME280;3908;52.310;7.230;2023-02-22T03:48:56;51526.53;;;-145.83;100.00
7730;BME280;3908;52.310;7.230;2023-02-22T03:51:44;51503.06;;;-145.83;100.00
7730;BME280;3908;52.310;7.230;2023-02-22T03:54:32;51485.44;;;-145.83;100.00
7730;BME280;3908;52.310;7.230;2023-02-22T03:57:24;51477.63;;;-145.83;100.00
7730;BME280;3908;52.310;7.230;2023-02-22T04:00:17;51481.53;;;-145.83;100.00
7730;BME280;3908;52.310;7.230;2023-02-22T04:03:04;51520.66;;;-145.83;100.00
7730;BME280;3908;52.310;7.230;2023-02-22T04:05:52;51489.34;;;-145.83;100.00
7730;BME280;3908;52.310;7.230;2023-02-22T04:08:39;51483.47;;;-145.83;100.00
7730;BME280;3908;52.310;7.230;2023-02-22T04:11:28;51458.06;;;-145.83;100.00
7730;BME280;3908;52.310;7.230;2023-02-22T04:14:15;51495.22;;;-145.83;100.00
7730;BME280;3908;52.310;7.230;2023-02-22T04:17:04;51503.06;;;-145.83;100.00
7730;BME280;3908;52.310;7.230;2023-02-22T04:19:51;51491.31;;;-145.83;100.00
7730;BME280;3908;52.310;7.230;2023-02-22T04:22:38;51475.66;;;-145.83;100.00
7730;BME280;3908;52.310;7.230;2023-02-22T04:25:25;51467.84;;;-145.83;100.00
7730;BME280;3908;52.310;7.230;2023-02-22T04:28:12;51487.41;;;-145.83;100.00
7730;BME280;3908;52.310;7.230;2023-02-22T04:31:04;51512.84;;;-145.83;100.00
7730;BME280;3908;52.310;7.230;2023-02-22T04:33:52;51463.91;;;-145.83;100.00
7730;BME280;3908;52.310;7.230;2023-02-22T04:36:39;51434.56;;;-145.83;100.00
7730;BME280;3908;52.310;7.230;2023-02-22T04:39:29;51508.91;;;-145.83;100.00
7730;BME280;3908;52.310;7.230;2023-02-22T04:42:16;51501.09;;;-145.83;100.00
7730;BME280;3908;52.310;7.230;2023-02-22T04:45:05;51481.53;;;-145.83;100.00
7730;BME280;3908;52.310;7.230;2023-02-22T04:47:52;51510.88;;;-145.83;100.00
7730;BME280;3908;52.310;7.230;2023-02-22T04:50:41;51506.97;;;-145.83;100.00
7730;BME280;3908;52.310;7.230;2023-02-22T04:53:28;51497.19;;;-145.83;100.00
7730;BME280;3908;52.310;7.230;2023-02-22T04:56:16;51489.34;;;-145.83;100.00
7730;BME280;3908;52.310;7.230;2023-02-22T04:59:03;51489.34;;;-145.83;100.00
7730;BME280;3908;52.310;7.230;2023-02-22T05:01:50;51510.88;;;-145.83;100.00
7730;BME280;3908;52.310;7.230;2023-02-22T05:04:37;51497.19;;;-145.83;100.00
7730;BME280;3908;52.310;7.230;2023-02-22T05:07:26;51487.41;;;-145.83;100.00
7730;BME280;3908;52.310;7.230;2023-02-22T05:10:13;51491.31;;;-145.83;100.00
7730;BME280;3908;52.310;7.230;2023-02-22T05:13:01;51463.91;;;-145.83;100.00
7730;BME280;3908;52.310;7.230;2023-02-22T05:15:48;51505.00;;;-145.83;100.00
7730;BME280;3908;52.310;7.230;2023-02-22T05:18:35;51493.25;;;-145.83;100.00
7730;BME280;3908;52.310;7.230;2023-02-22T05:21:22;51473.69;;;-145.83;100.00
7730;BME280;3908;52.310;7.230;2023-02-22T05:24:10;51475.66;;;-145.83;100.00
7730;BME280;3908;52.310;7.230;2023-02-22T05:26:57;51483.47;;;-145.83;100.00
7730;BME280;3908;52.310;7.230;2023-02-22T05:29:44;51503.06;;;-145.83;100.00
7730;BME280;3908;52.310;7.230;2023-02-22T05:32:31;51487.41;;;-145.83;100.00
7730;BME280;3908;52.310;7.230;2023-02-22T05:35:20;51489.34;;;-145.83;100.00
7730;BME280;3908;52.310;7.230;2023-02-22T05:38:09;51491.31;;;-145.83;100.00
7730;BME280;3908;52.310;7.230;2023-02-22T05:40:57;51520.66;;;-145.83;100.00
7730;BME280;3908;52.310;7.230;2023-02-22T05:43:44;51505.00;;;-145.83;100.00
7730;BME280;3908;52.310;7.230;2023-02-22T05:46:34;51477.63;;;-145.83;100.00
7730;BME280;3908;52.310;7.230;2023-02-22T05:49:21;51526.53;;;-145.83;100.00
7730;BME280;3908;52.310;7.230;2023-02-22T05:52:08;51483.47;;;-145.83;100.00
7730;BME280;3908;52.310;7.230;2023-02-22T05:54:55;51489.34;;;-145.83;100.00
7730;BME280;3908;52.310;7.230;2023-02-22T05:57:44;51501.09;;;-145.83;100.00
7730;BME280;3908;52.310;7.230;2023-02-22T06:00:31;51503.06;;;-145.83;100.00
7730;BME280;3908;52.310;7.230;2023-02-22T06:03:18;51483.47;;;-145.83;100.00
7730;BME280;3908;52.310;7.230;2023-02-22T06:06:05;51524.56;;;-145.83;100.00
7730;BME280;3908;52.310;7.230;2023-02-22T06:08:53;51510.88;;;-145.83;100.00
7730;BME280;3908;52.310;7.230;2023-02-22T06:11:40;51499.13;;;-145.83;100.00
7730;BME280;3908;52.310;7.230;2023-02-22T06:14:29;51514.78;;;-145.83;100.00
7730;BME280;3908;52.310;7.230;2023-02-22T06:17:16;51483.47;;;-145.83;100.00
7730;BME280;3908;52.310;7.230;2023-02-22T06:20:04;51473.69;;;-145.83;100.00
7730;BME280;3908;52.310;7.230;2023-02-22T06:22:54;51499.13;;;-145.83;100.00
7730;BME280;3908;52.310;7.230;2023-02-22T06:25:42;51512.84;;;-145.83;100.00
7730;BME280;3908;52.310;7.230;2023-02-22T06:28:33;51489.34;;;-145.83;100.00
7730;BME280;3908;52.310;7.230;2023-02-22T06:31:22;51467.84;;;-145.83;100.00
7730;BME280;3908;52.310;7.230;2023-02-22T06:34:09;51530.44;;;-145.83;100.00
7730;BME280;3908;52.310;7.230;2023-02-22T06:36:56;51526.53;;;-145.83;100.00
7730;BME280;3908;52.310;7.230;2023-02-22T06:39:43;51508.91;;;-145.83;100.00
7730;BME280;3908;52.310;7.230;2023-02-22T06:42:31;51465.88;;;-145.83;100.00
7730;BME280;3908;52.310;7.230;2023-02-22T06:45:21;51495.22;;;-145.83;100.00
7730;BME280;3908;52.310;7.230;2023-02-22T06:48:12;51493.25;;;-145.83;100.00
7730;BME280;3908;52.310;7.230;2023-02-22T06:51:02;51497.19;;;-145.83;100.00
7730;BME280;3908;52.310;7.230;2023-02-22T06:53:49;51458.06;;;-145.83;100.00
7730;BME280;3908;52.310;7.230;2023-02-22T06:56:36;51471.75;;;-145.83;100.00
7730;BME280;3908;52.310;7.230;2023-02-22T06:59:23;51477.63;;;-145.83;100.00
7730;BME280;3908;52.310;7.230;2023-02-22T07:02:11;51495.22;;;-145.83;100.00
7730;BME280;3908;52.310;7.230;2023-02-22T07:05:00;51499.13;;;-145.83;100.00
7730;BME280;3908;52.310;7.230;2023-02-22T07:07:50;51499.13;;;-145.83;100.00
7730;BME280;3908;52.310;7.230;2023-02-22T07:10:39;51495.22;;;-145.83;100.00
7730;BME280;3908;52.310;7.230;2023-02-22T07:13:26;51483.47;;;-145.83;100.00
7730;BME280;3908;52.310;7.230;2023-02-22T07:16:14;51479.56;;;-145.83;100.00
7730;BME280;3908;52.310;7.230;2023-02-22T07:19:01;51501.09;;;-145.83;100.00
7730;BME280;3908;52.310;7.230;2023-02-22T07:21:49;51489.34;;;-145.83;100.00
7730;BME280;3908;52.310;7.230;2023-02-22T07:24:46;51483.47;;;-145.83;100.00
7730;BME280;3908;52.310;7.230;2023-02-22T07:27:34;51506.97;;;-145.83;100.00
7730;BME280;3908;52.310;7.230;2023-02-22T07:30:25;51505.00;;;-145.83;100.00
7730;BME280;3908;52.310;7.230;2023-02-22T07:33:15;51512.84;;;-145.83;100.00
7730;BME280;3908;52.310;7.230;2023-02-22T07:36:02;51483.47;;;-145.83;100.00
7730;BME280;3908;52.310;7.230;2023-02-22T07:38:52;51481.53;;;-145.83;100.00
7730;BME280;3908;52.310;7.230;2023-02-22T07:41:39;51479.56;;;-145.83;100.00
7730;BME280;3908;52.310;7.230;2023-02-22T07:44:26;51503.06;;;-145.83;100.00
7730;BME280;3908;52.310;7.230;2023-02-22T07:47:13;51505.00;;;-145.83;100.00
7730;BME280;3908;52.310;7.230;2023-02-22T07:50:01;51493.25;;;-145.83;100.00
7730;BME280;3908;52.310;7.230;2023-02-22T07:52:50;51503.06;;;-145.83;100.00
7730;BME280;3908;52.310;7.230;2023-02-22T07:55:39;51506.97;;;-145.83;100.00
7730;BME280;3908;52.310;7.230;2023-02-22T07:58:28;51489.34;;;-145.83;100.00
7730;BME280;3908;52.310;7.230;2023-02-22T08:01:16;51536.31;;;-145.83;100.00
7730;BME280;3908;52.310;7.230;2023-02-22T08:04:04;51479.56;;;-145.83;100.00
7730;BME280;3908;52.310;7.230;2023-02-22T08:06:52;51479.56;;;-145.83;100.00
7730;BME280;3908;52.310;7.230;2023-02-22T08:09:38;51520.66;;;-145.83;100.00
7730;BME280;3908;52.310;7.230;2023-02-22T08:12:29;51506.97;;;-145.83;100.00
7730;BME280;3908;52.310;7.230;2023-02-22T08:15:19;51499.13;;;-145.83;100.00
7730;BME280;3908;52.310;7.230;2023-02-22T08:18:09;51501.09;;;-145.83;100.00
7730;BME280;3908;52.310;7.230;2023-02-22T08:20:58;51483.47;;;-145.83;100.00
7730;BME280;3908;52.310;7.230;2023-02-22T08:23:52;51497.19;;;-145.83;100.00
7730;BME280;3908;52.310;7.230;2023-02-22T08:26:43;51526.53;;;-145.83;100.00
7730;BME280;3908;52.310;7.230;2023-02-22T08:29:32;51503.06;;;-145.83;100.00
7730;BME280;3908;52.310;7.230;2023-02-22T08:32:19;51489.34;;;-145.83;100.00
7730;BME280;3908;52.310;7.230;2023-02-22T08:35:08;51516.75;;;-145.83;100.00
7730;BME280;3908;52.310;7.230;2023-02-22T08:38:00;51467.84;;;-145.83;100.00
7730;BME280;3908;52.310;7.230;2023-02-22T08:40:48;51493.25;;;-145.83;100.00
7730;BME280;3908;52.310;7.230;2023-02-22T08:43:37;51506.97;;;-145.83;100.00
7730;BME280;3908;52.310;7.230;2023-02-22T08:46:25;51501.09;;;-145.83;100.00
7730;BME280;3908;52.310;7.230;2023-02-22T08:49:12;51506.97;;;-145.83;100.00
7730;BME280;3908;52.310;7.230;2023-02-22T08:51:59;51501.09;;;-145.83;100.00
7730;BME280;3908;52.310;7.230;2023-02-22T08:54:47;51503.06;;;-145.83;100.00
7730;BME280;3908;52.310;7.230;2023-02-22T08:57:35;51508.91;;;-145.83;100.00
7730;BME280;3908;52.310;7.230;2023-02-22T09:00:22;51528.47;;;-145.83;100.00
7730;BME280;3908;52.310;7.230;2023-02-22T09:03:13;51512.84;;;-145.83;100.00
7730;BME280;3908;52.310;7.230;2023-02-22T09:06:00;51510.88;;;-145.83;100.00
7730;BME280;3908;52.310;7.230;2023-02-22T09:08:52;51503.06;;;-145.83;100.00
7730;BME280;3908;52.310;7.230;2023-02-22T09:11:42;51489.34;;;-145.83;100.00
7730;BME280;3908;52.310;7.230;2023-02-22T09:14:29;51512.84;;;-145.83;100.00
7730;BME280;3908;52.310;7.230;2023-02-22T09:17:16;51503.06;;;-145.83;100.00
7730;BME280;3908;52.310;7.230;2023-02-22T09:20:06;51499.13;;;-145.83;100.00
7730;BME280;3908;52.310;7.230;2023-02-22T09:22:55;51469.78;;;-145.83;100.00
7730;BME280;3908;52.310;7.230;2023-02-22T09:25:42;51473.69;;;-145.83;100.00
7730;BME280;3908;52.310;7.230;2023-02-22T09:28:31;51503.06;;;-145.83;100.00
7730;BME280;3908;52.310;7.230;2023-02-22T09:31:18;51503.06;;;-145.83;100.00
7730;BME280;3908;52.310;7.230;2023-02-22T09:34:06;51510.88;;;-145.83;100.00
7730;BME280;3908;52.310;7.230;2023-02-22T09:37:00;51506.97;;;-145.83;100.00
7730;BME280;3908;52.310;7.230;2023-02-22T09:39:49;51477.63;;;-145.83;100.00
7730;BME280;3908;52.310;7.230;2023-02-22T09:42:42;51487.41;;;-145.83;100.00
7730;BME280;3908;52.310;7.230;2023-02-22T09:45:37;51510.88;;;-145.83;100.00
7730;BME280;3908;52.310;7.230;2023-02-22T09:48:32;51510.88;;;-145.83;100.00
7730;BME280;3908;52.310;7.230;2023-02-22T09:51:24;51518.69;;;-145.83;100.00
7730;BME280;3908;52.310;7.230;2023-02-22T09:54:21;51532.41;;;-145.83;100.00
7730;BME280;3908;52.310;7.230;2023-02-22T09:57:14;51489.34;;;-145.83;100.00
7730;BME280;3908;52.310;7.230;2023-02-22T10:00:07;51508.91;;;-145.83;100.00
7730;BME280;3908;52.310;7.230;2023-02-22T10:03:13;51522.63;;;-145.83;100.00
7730;BME280;3908;52.310;7.230;2023-02-22T10:06:10;51491.31;;;-145.83;100.00
7730;BME280;3908;52.310;7.230;2023-02-22T10:08:59;51489.34;;;-145.83;100.00
7730;BME280;3908;52.310;7.230;2023-02-22T10:11:58;51503.06;;;-145.83;100.00
7730;BME280;3908;52.310;7.230;2023-02-22T10:18:16;51487.41;;;-145.83;100.00
7730;BME280;3908;52.310;7.230;2023-02-22T10:21:15;51520.66;;;-145.83;100.00
7730;BME280;3908;52.310;7.230;2023-02-22T10:24:14;51536.31;;;-145.83;100.00
7730;BME280;3908;52.310;7.230;2023-02-22T10:27:17;51506.97;;;-145.83;100.00
7730;BME280;3908;52.310;7.230;2023-02-22T10:30:18;51522.63;;;-145.83;100.00
7730;BME280;3908;52.310;7.230;2023-02-22T10:33:09;51477.63;;;-145.83;100.00
7730;BME280;3908;52.310;7.230;2023-02-22T10:35:59;51542.19;;;-145.83;100.00
7730;BME280;3908;52.310;7.230;2023-02-22T10:38:51;51528.47;;;-145.83;100.00
7730;BME280;3908;52.310;7.230;2023-02-22T10:41:44;51526.53;;;-145.83;100.00
7730;BME280;3908;52.310;7.230;2023-02-22T10:44:37;51526.53;;;-145.83;100.00
7730;BME280;3908;52.310;7.230;2023-02-22T10:47:24;51526.53;;;-145.83;100.00
7730;BME280;3908;52.310;7.230;2023-02-22T10:50:13;51555.88;;;-145.83;100.00
7730;BME280;3908;52.310;7.230;2023-02-22T10:53:01;51536.31;;;-145.83;100.00
7730;BME280;3908;52.310;7.230;2023-02-22T10:56:05;51510.88;;;-145.83;100.00
7730;BME280;3908;52.310;7.230;2023-02-22T10:58:54;51546.09;;;-145.83;100.00
7730;BME280;3908;52.310;7.230;2023-02-22T11:01:44;51518.69;;;-145.83;100.00
7730;BME280;3908;52.310;7.230;2023-02-22T11:04:43;51550.00;;;-145.83;100.00
7730;BME280;3908;52.310;7.230;2023-02-22T11:07:35;51544.13;;;-145.83;100.00
7730;BME280;3908;52.310;7.230;2023-02-22T11:10:30;51536.31;;;-145.83;100.00
7730;BME280;3908;52.310;7.230;2023-02-22T11:13:25;51528.47;;;-145.83;100.00
7730;BME280;3908;52.310;7.230;2023-02-22T11:16:18;51565.66;;;-145.83;100.00
7730;BME280;3908;52.310;7.230;2023-02-22T11:19:16;51553.91;;;-145.83;100.00
7730;BME280;3908;52.310;7.230;2023-02-22T11:22:11;51526.53;;;-145.83;100.00
7730;BME280;3908;52.310;7.230;2023-02-22T11:25:01;51550.00;;;-145.83;100.00
7730;BME280;3908;52.310;7.230;2023-02-22T11:27:53;51550.00;;;-145.83;100.00
7730;BME280;3908;52.310;7.230;2023-02-22T11:30:46;51540.22;;;-145.83;100.00
7730;BME280;3908;52.310;7.230;2023-02-22T11:33:37;51514.78;;;-145.83;100.00
7730;BME280;3908;52.310;7.230;2023-02-22T11:36:35;51573.47;;;-145.83;100.00
7730;BME280;3908;52.310;7.230;2023-02-22T11:39:27;51573.47;;;-145.83;100.00
7730;BME280;3908;52.310;7.230;2023-02-22T11:42:23;51565.66;;;-145.83;100.00
7730;BME280;3908;52.310;7.230;2023-02-22T11:45:14;51530.44;;;-145.83;100.00
7730;BME280;3908;52.310;7.230;2023-02-22T11:48:14;51567.59;;;-145.83;100.00
7730;BME280;3908;52.310;7.230;2023-02-22T11:51:23;51540.22;;;-145.83;100.00
7730;BME280;3908;52.310;7.230;2023-02-22T11:54:27;51550.00;;;-145.83;100.00
7730;BME280;3908;52.310;7.230;2023-02-22T11:57:32;51565.66;;;-145.83;100.00
7730;BME280;3908;52.310;7.230;2023-02-22T12:00:28;51589.13;;;-145.83;100.00
7730;BME280;3908;52.310;7.230;2023-02-22T12:03:31;51589.13;;;-145.83;100.00
7730;BME280;3908;52.310;7.230;2023-02-22T12:06:31;51540.22;;;-145.83;100.00
7730;BME280;3908;52.310;7.230;2023-02-22T12:09:33;51548.03;;;-145.83;100.00
7730;BME280;3908;52.310;7.230;2023-02-22T12:12:35;51583.25;;;-145.83;100.00
7730;BME280;3908;52.310;7.230;2023-02-22T12:15:29;51546.09;;;-145.83;100.00
7730;BME280;3908;52.310;7.230;2023-02-22T12:18:23;51546.09;;;-145.83;100.00
7730;BME280;3908;52.310;7.230;2023-02-22T12:21:17;51550.00;;;-145.83;100.00
7730;BME280;3908;52.310;7.230;2023-02-22T12:24:08;51571.53;;;-145.83;100.00
7730;BME280;3908;52.310;7.230;2023-02-22T12:27:02;51532.41;;;-145.83;100.00
7730;BME280;3908;52.310;7.230;2023-02-22T12:29:57;51557.81;;;-145.83;100.00
7730;BME280;3908;52.310;7.230;2023-02-22T12:32:50;51567.59;;;-145.83;100.00
7730;BME280;3908;52.310;7.230;2023-02-22T12:35:41;51546.09;;;-145.83;100.00
7730;BME280;3908;52.310;7.230;2023-02-22T12:38:34;51569.56;;;-145.83;100.00
7730;BME280;3908;52.310;7.230;2023-02-22T12:41:27;51579.34;;;-145.83;100.00
7730;BME280;3908;52.310;7.230;2023-02-22T12:44:21;51589.13;;;-145.83;100.00
7730;BME280;3908;52.310;7.230;2023-02-22T12:47:15;51548.03;;;-145.83;100.00
7730;BME280;3908;52.310;7.230;2023-02-22T12:50:11;51544.13;;;-145.83;100.00
7730;BME280;3908;52.310;7.230;2023-02-22T12:53:05;51573.47;;;-145.83;100.00
7730;BME280;3908;52.310;7.230;2023-02-22T12:56:14;51548.03;;;-145.83;100.00
7730;BME280;3908;52.310;7.230;2023-02-22T12:59:09;51575.44;;;-145.83;100.00
7730;BME280;3908;52.310;7.230;2023-02-22T13:02:11;51559.78;;;-145.83;100.00
7730;BME280;3908;52.310;7.230;2023-02-22T13:05:02;51569.56;;;-145.83;100.00
7730;BME280;3908;52.310;7.230;2023-02-22T13:08:00;51557.81;;;-145.83;100.00
7730;BME280;3908;52.310;7.230;2023-02-22T13:10:56;51565.66;;;-145.83;100.00
7730;BME280;3908;52.310;7.230;2023-02-22T13:13:57;51550.00;;;-145.83;100.00
7730;BME280;3908;52.310;7.230;2023-02-22T13:16:53;51516.75;;;-145.83;100.00
7730;BME280;3908;52.310;7.230;2023-02-22T13:19:50;51551.97;;;-145.83;100.00
7730;BME280;3908;52.310;7.230;2023-02-22T13:22:44;51569.56;;;-145.83;100.00
7730;BME280;3908;52.310;7.230;2023-02-22T13:25:41;51555.88;;;-145.83;100.00
7730;BME280;3908;52.310;7.230;2023-02-22T13:28:35;51612.59;;;-145.83;100.00
7730;BME280;3908;52.310;7.230;2023-02-22T13:31:54;51544.13;;;-145.83;100.00
7730;BME280;3908;52.310;7.230;2023-02-22T13:35:13;51518.69;;;-145.83;100.00
7730;BME280;3908;52.310;7.230;2023-02-22T13:38:44;51569.56;;;-145.83;100.00
7730;BME280;3908;52.310;7.230;2023-02-22T13:41:50;51581.31;;;-145.83;100.00
7730;BME280;3908;52.310;7.230;2023-02-22T13:45:01;51575.44;;;-145.83;100.00
7730;BME280;3908;52.310;7.230;2023-02-22T13:51:30;51546.09;;;-145.83;100.00
7730;BME280;3908;52.310;7.230;2023-02-22T13:54:22;51548.03;;;-145.83;100.00
7730;BME280;3908;52.310;7.230;2023-02-22T13:57:20;51538.25;;;-145.83;100.00
7730;BME280;3908;52.310;7.230;2023-02-22T14:00:22;51577.41;;;-145.83;100.00
7730;BME280;3908;52.310;7.230;2023-02-22T14:03:34;51563.69;;;-145.83;100.00
7730;BME280;3908;52.310;7.230;2023-02-22T14:06:39;51581.31;;;-145.83;100.00
7730;BME280;3908;52.310;7.230;2023-02-22T14:09:42;51546.09;;;-145.83;100.00
7730;BME280;3908;52.310;7.230;2023-02-22T14:12:50;51536.31;;;-145.83;100.00
7730;BME280;3908;52.310;7.230;2023-02-22T14:16:19;51569.56;;;-145.83;100.00
7730;BME280;3908;52.310;7.230;2023-02-22T14:19:13;51550.00;;;-145.83;100.00
7730;BME280;3908;52.310;7.230;2023-02-22T14:22:02;51563.69;;;-145.83;100.00
7730;BME280;3908;52.310;7.230;2023-02-22T14:24:51;51551.97;;;-145.83;100.00
7730;BME280;3908;52.310;7.230;2023-02-22T14:27:39;51581.31;;;-145.83;100.00
7730;BME280;3908;52.310;7.230;2023-02-22T14:30:28;51567.59;;;-145.83;99.30
7730;BME280;3908;52.310;7.230;2023-02-22T14:33:53;51569.56;;;-145.83;100.00
7730;BME280;3908;52.310;7.230;2023-02-22T14:36:47;51618.47;;;-145.83;99.14
7730;BME280;3908;52.310;7.230;2023-02-22T14:39:40;51587.19;;;-145.83;100.00
7730;BME280;3908;52.310;7.230;2023-02-22T14:42:30;51555.88;;;-145.83;98.92
7730;BME280;3908;52.310;7.230;2023-02-22T14:45:23;51573.47;;;-145.83;99.82
7730;BME280;3908;52.310;7.230;2023-02-22T14:48:18;51598.91;;;-145.83;100.00
7730;BME280;3908;52.310;7.230;2023-02-22T14:51:16;51559.78;;;-145.83;100.00
7730;BME280;3908;52.310;7.230;2023-02-22T14:54:08;51548.03;;;-145.83;100.00
7730;BME280;3908;52.310;7.230;2023-02-22T14:57:08;51536.31;;;-145.83;100.00
7730;BME280;3908;52.310;7.230;2023-02-22T15:00:04;51563.69;;;-145.83;100.00
7730;BME280;3908;52.310;7.230;2023-02-22T15:03:04;51569.56;;;-145.83;100.00
7730;BME280;3908;52.310;7.230;2023-02-22T15:05:52;51544.13;;;-145.83;100.00
7730;BME280;3908;52.310;7.230;2023-02-22T15:08:40;51544.13;;;-145.83;100.00